Notice: Undefined index: language in /home/u908952976/domains/airgaviota-va.com/public_html/vam/index.php on line 25
AirGaviota-VA

... VIRTUAL FLIGHT...OUR PASSION



 FLIGHT DETAILS
Pilot: GVT462 Peter Voksan Aircraft: REDEYES - ANTONOV AN-2 (32V_64B) AN-2-GAVIOTAAIRVA Distance: 78NM
Departure MUNG Arrival MUCL Duration 00:52
Validation Validated Type Charter Tail Number GV-AET
ZFW 4085 Block Fuel/Initial FOB 84/0 Flight Fuel 70
Passengers 10 Cargo 0 Alternate MUCF
Departure Time 1620 Cruise Speed 100 Flight Level 1500
Flight Type VFR Aircraft Type AN2 Weight Unit Kg
Date 19-04-2020 Pilot Comments Network IVAO
Crashed No Validator Comments Flight Rating -30

 ROUTE
ROUTE CAYO TABLONES
REMARKS
 FLIGHT FAILURES
Crashed OK Beacon off & Engine Running Fail KIAS Above 250 below 10000 FT OK
Lights OFF below 10000 FT OK Lights ON above 10000 FT OK Stall OK
Overspeed OK Flight paused OK Refueling OK
Slew detected OK Taxi & Taxi lights off Fail Take off & lights off OK
Landing & lights off OK Landed in not planned airport OK Taxi Speed OK
Wrong altimeter in Take off OK Wrong altimeter in Landing OK
 LANDING ANALYSIS
Landing wind 133º/3 kt Landing heading 353
Landing VS: -28.45 ft/min Landing IAS: 51.66 kt
Landing Force G 1 G Landing Bank -1.6
Landing Pitch 2.8 Landing Flaps 0
Navigation Lights ON Landing Lights ON
Beacon Lights OFF Strobe Lights OFF
 FLIGHT MAP
 ALTITUDE CHART
 FLIGHT FINANCIAL REPORT
 MAIN EVENTS
DATE EVENTIASALTITUDE
2020-04-19 18:15:09 SIM ACARS version 1.4.1089
2020-04-19 18:15:09 BOARDING089
2020-04-19 18:17:08 STARTING ENGINE 1 089
2020-04-19 18:17:08 BEACON LIGHT OFF & ENGINE ON089
2020-04-19 18:19:46 FLAPS EXTENSION 2 % 089
2020-04-19 18:19:47 FLAPS EXTENSION 4 % 089
2020-04-19 18:19:47 FLAPS EXTENSION 5 % 089
2020-04-19 18:19:47 FLAPS EXTENSION 7 % 089
2020-04-19 18:19:47 FLAPS EXTENSION 9 % 089
2020-04-19 18:19:47 FLAPS EXTENSION 13 % 089
2020-04-19 18:19:47 FLAPS EXTENSION 15 % 089
2020-04-19 18:19:48 FLAPS EXTENSION 18 % 089
2020-04-19 18:19:48 FLAPS EXTENSION 22 % 089
2020-04-19 18:19:48 FLAPS EXTENSION 24 % 089
2020-04-19 18:19:48 FLAPS EXTENSION 25 % 089
2020-04-19 18:19:48 FLAPS EXTENSION 27 % 089
2020-04-19 18:19:49 FLAPS EXTENSION 29 % 089
2020-04-19 18:19:49 FLAPS EXTENSION 31 % 089
2020-04-19 18:19:49 FLAPS EXTENSION 33 % 089
2020-04-19 18:19:49 FLAPS EXTENSION 36 % 089
2020-04-19 18:19:49 FLAPS EXTENSION 37 % 089
2020-04-19 18:24:27 TAXI TO THE RWY 989
2020-04-19 18:24:27 TAXING WITH TAXI LIGHTS OFF989
2020-04-19 18:24:40 ROLLING FOR TAKE OFF4390
2020-04-19 18:24:44 TAKE OFF5293
2020-04-19 18:24:50 FLAPS EXTENSION 34 % 55151
2020-04-19 18:24:50 FLAPS EXTENSION 32 % 55153
2020-04-19 18:24:51 FLAPS EXTENSION 29 % 55155
2020-04-19 18:24:51 FLAPS EXTENSION 24 % 55159
2020-04-19 18:24:51 FLAPS EXTENSION 23 % 55161
2020-04-19 18:25:30 FLAPS EXTENSION 20 % 57399
2020-04-19 18:25:30 FLAPS EXTENSION 18 % 57399
2020-04-19 18:25:31 FLAPS EXTENSION 15 % 57400
2020-04-19 18:25:31 FLAPS EXTENSION 12 % 58400
2020-04-19 18:25:31 FLAPS EXTENSION 10 % 58400
2020-04-19 18:25:31 FLAPS EXTENSION 7 % 58401
2020-04-19 18:25:32 FLAPS EXTENSION 5 % 58401
2020-04-19 18:25:32 FLAPS EXTENSION 2 % 58402
2020-04-19 18:25:32 FLAPS EXTENSION 0 % 58402
2020-04-19 18:26:04 CRUISE62562
2020-04-19 18:26:54 CLIMBING56664
2020-04-19 18:28:54 CRUISE721200
2020-04-19 18:29:44 CLIMBING661417
2020-04-19 18:31:14 CRUISE671714
2020-04-19 18:34:24 DESCEND1021543
2020-04-19 18:35:14 CRUISE1041343
2020-04-19 18:43:14 DESCEND981287
2020-04-19 18:43:54 CRUISE981252
2020-04-19 18:50:24 DESCEND1041172
2020-04-19 18:50:54 CRUISE1011157
2020-04-19 18:56:44 DESCEND951109
2020-04-19 18:57:14 CRUISE961055
2020-04-19 19:00:25 DESCEND100981
2020-04-19 19:01:25 CRUISE99890
2020-04-19 19:03:25 DESCEND107651
2020-04-19 19:04:15 CRUISE109411
2020-04-19 19:05:45 DESCEND97346
2020-04-19 19:06:15 CRUISE92367
2020-04-19 19:10:55 DESCEND90250
2020-04-19 19:12:05 CLIMBING68211
2020-04-19 19:12:08 FLAPS EXTENSION 2 % 67222
2020-04-19 19:12:08 FLAPS EXTENSION 6 % 66223
2020-04-19 19:12:08 FLAPS EXTENSION 8 % 66225
2020-04-19 19:12:08 FLAPS EXTENSION 10 % 66225
2020-04-19 19:12:08 FLAPS EXTENSION 12 % 66226
2020-04-19 19:12:09 FLAPS EXTENSION 14 % 66227
2020-04-19 19:12:09 FLAPS EXTENSION 17 % 66228
2020-04-19 19:12:09 FLAPS EXTENSION 19 % 66229
2020-04-19 19:12:09 FLAPS EXTENSION 21 % 66230
2020-04-19 19:12:09 FLAPS EXTENSION 23 % 65231
2020-04-19 19:12:10 FLAPS EXTENSION 25 % 65232
2020-04-19 19:12:10 FLAPS EXTENSION 27 % 65233
2020-04-19 19:12:10 FLAPS EXTENSION 31 % 65234
2020-04-19 19:12:10 FLAPS EXTENSION 33 % 65235
2020-04-19 19:12:10 FLAPS EXTENSION 35 % 64236
2020-04-19 19:12:12 FLAPS EXTENSION 37 % 62251
2020-04-19 19:12:13 FLAPS EXTENSION 40 % 62252
2020-04-19 19:12:13 FLAPS EXTENSION 42 % 62253
2020-04-19 19:12:13 FLAPS EXTENSION 44 % 61254
2020-04-19 19:12:13 FLAPS EXTENSION 46 % 61256
2020-04-19 19:12:13 FLAPS EXTENSION 50 % 61258
2020-04-19 19:12:14 FLAPS EXTENSION 53 % 61259
2020-04-19 19:12:14 FLAPS EXTENSION 55 % 61260
2020-04-19 19:12:14 FLAPS EXTENSION 56 % 60262
2020-04-19 19:12:34 FLAPS EXTENSION 57 % 58466
2020-04-19 19:12:34 FLAPS EXTENSION 59 % 58468
2020-04-19 19:12:34 FLAPS EXTENSION 61 % 58470
2020-04-19 19:12:35 FLAPS EXTENSION 63 % 58471
2020-04-19 19:12:36 FLAPS EXTENSION 68 % 58483
2020-04-19 19:13:07 FLAPS EXTENSION 69 % 61633
2020-04-19 19:13:08 FLAPS EXTENSION 71 % 61632
2020-04-19 19:13:08 FLAPS EXTENSION 74 % 61632
2020-04-19 19:13:08 FLAPS EXTENSION 78 % 61630
2020-04-19 19:13:08 FLAPS EXTENSION 79 % 61630
2020-04-19 19:13:08 FLAPS EXTENSION 81 % 61629
2020-04-19 19:13:09 FLAPS EXTENSION 83 % 61628
2020-04-19 19:13:09 FLAPS EXTENSION 85 % 61627
2020-04-19 19:13:09 FLAPS EXTENSION 86 % 61626
2020-04-19 19:13:09 FLAPS EXTENSION 88 % 61625
2020-04-19 19:13:18 FLAPS EXTENSION 90 % 59573
2020-04-19 19:13:18 FLAPS EXTENSION 93 % 59572
2020-04-19 19:13:18 FLAPS EXTENSION 95 % 59571
2020-04-19 19:13:19 FLAPS EXTENSION 97 % 59570
2020-04-19 19:13:19 FLAPS EXTENSION 99 % 59570
2020-04-19 19:13:19 FLAPS EXTENSION 100 % 59570
2020-04-19 19:13:35 DESCEND49489
2020-04-19 19:14:05 CRUISE48453
2020-04-19 19:15:36 DESCEND51249
2020-04-19 19:16:36 CRUISE5039
2020-04-19 19:16:59 LANDING5222
2020-04-19 19:17:29 TAXI TO THE GATE2019
2020-04-19 19:17:37 FLAPS EXTENSION 98 % 1219
2020-04-19 19:17:38 FLAPS EXTENSION 95 % 1219
2020-04-19 19:17:38 FLAPS EXTENSION 93 % 1219
2020-04-19 19:17:38 FLAPS EXTENSION 91 % 1119
2020-04-19 19:17:38 FLAPS EXTENSION 88 % 1119
2020-04-19 19:17:38 FLAPS EXTENSION 86 % 1119
2020-04-19 19:17:39 FLAPS EXTENSION 84 % 1119
2020-04-19 19:17:39 FLAPS EXTENSION 81 % 1119
2020-04-19 19:17:39 FLAPS EXTENSION 79 % 1119
2020-04-19 19:17:39 FLAPS EXTENSION 76 % 1119
2020-04-19 19:17:39 FLAPS EXTENSION 74 % 1119
2020-04-19 19:17:40 FLAPS EXTENSION 72 % 1119
2020-04-19 19:17:40 FLAPS EXTENSION 69 % 1119
2020-04-19 19:17:40 FLAPS EXTENSION 67 % 1119
2020-04-19 19:17:40 FLAPS EXTENSION 64 % 1119
2020-04-19 19:17:40 FLAPS EXTENSION 62 % 1119
2020-04-19 19:17:41 FLAPS EXTENSION 53 % 1119
2020-04-19 19:17:41 FLAPS EXTENSION 48 % 1119
2020-04-19 19:17:42 FLAPS EXTENSION 41 % 1119
2020-04-19 19:17:42 FLAPS EXTENSION 36 % 1119
2020-04-19 19:17:43 FLAPS EXTENSION 33 % 1119
2020-04-19 19:17:43 FLAPS EXTENSION 29 % 1119
2020-04-19 19:17:43 FLAPS EXTENSION 26 % 1119
2020-04-19 19:17:43 FLAPS EXTENSION 24 % 1119
2020-04-19 19:17:44 FLAPS EXTENSION 21 % 1119
2020-04-19 19:17:44 FLAPS EXTENSION 17 % 1119
2020-04-19 19:17:44 FLAPS EXTENSION 14 % 1119
2020-04-19 19:17:44 FLAPS EXTENSION 12 % 1119
2020-04-19 19:17:44 FLAPS EXTENSION 10 % 1119
2020-04-19 19:17:45 FLAPS EXTENSION 7 % 1119
2020-04-19 19:17:45 FLAPS EXTENSION 5 % 1119
2020-04-19 19:17:45 FLAPS EXTENSION 2 % 1119
2020-04-19 19:17:45 FLAPS EXTENSION 0 % 1119
2020-04-19 19:17:45 FLAPS EXTENSION 0 % 1119
2020-04-19 19:23:19 STOPPING ENGINE 1 019
 ACARS DATA
DATE IASGSALTITUDEFUEL CONSUMED OATFLIGHT STATUS
2020-04-19 18:16:090088023BOARDING
2020-04-19 18:17:090088023BOARDING
2020-04-19 18:18:090088123BOARDING
2020-04-19 18:19:090088223BOARDING
2020-04-19 18:20:090088323BOARDING
2020-04-19 18:21:090088323BOARDING
2020-04-19 18:22:090088423BOARDING
2020-04-19 18:23:090088523BOARDING
2020-04-19 18:24:094688623BOARDING
2020-04-19 18:25:095254327823CLIMBING
2020-04-19 18:26:0959585701022CRUISE
2020-04-19 18:27:0952537531122CLIMBING
2020-04-19 18:28:0959599571321CLIMBING
2020-04-19 18:29:09656313151421CRUISE
2020-04-19 18:30:09666515391520CLIMBING
2020-04-19 18:31:09666617131720CLIMBING
2020-04-19 18:32:09838317651420CRUISE
2020-04-19 18:33:09969617181920CRUISE
2020-04-19 18:34:09999915762020CRUISE
2020-04-19 18:35:0910410413622220DESCEND
2020-04-19 18:36:09999913552320CRUISE
2020-04-19 18:37:09999813872420CRUISE
2020-04-19 18:38:09979613692620CRUISE
2020-04-19 18:39:091009913322721CRUISE
2020-04-19 18:40:09989812222821CRUISE
2020-04-19 18:41:09979712473021CRUISE
2020-04-19 18:42:09969612633121CRUISE
2020-04-19 18:43:09969613033221CRUISE
2020-04-19 18:44:09969712383421CRUISE
2020-04-19 18:45:09969612993521CRUISE
2020-04-19 18:46:09959513283621CRUISE
2020-04-19 18:47:0910010012983721CRUISE
2020-04-19 18:48:09969613053921CRUISE
2020-04-19 18:49:09949513504020CRUISE
2020-04-19 18:50:09989712534121CRUISE
2020-04-19 18:51:09989811894321CRUISE
2020-04-19 18:52:09979911044421CRUISE
2020-04-19 18:53:09989710674521CRUISE
2020-04-19 18:54:09949511304721CRUISE
2020-04-19 18:55:09969611094821CRUISE
2020-04-19 18:56:09979710964921CRUISE
2020-04-19 18:57:09949610675121DESCEND
2020-04-19 18:58:09959710435221CRUISE
2020-04-19 18:59:09949510385321CRUISE
2020-04-19 19:00:09959611085521CRUISE
2020-04-19 19:01:09969610865621CRUISE
2020-04-19 19:00:411041049185721DESCEND
2020-04-19 19:01:4196958995921CRUISE
2020-04-19 19:02:4198988416022CRUISE
2020-04-19 19:03:411061056266122DESCEND
2020-04-19 19:04:411011004446323CRUISE
2020-04-19 19:05:4196953676423CRUISE
2020-04-19 19:06:4192913276523CRUISE
2020-04-19 19:07:4188873846723CRUISE
2020-04-19 19:08:4188874936822CRUISE
2020-04-19 19:09:4188874796922CRUISE
2020-04-19 19:10:4194932977023CRUISE
2020-04-19 19:11:418280767223DESCEND
2020-04-19 19:12:4158565357322CLIMBING
2020-04-19 19:13:4146444777422DESCEND
2020-04-19 19:14:4152504447623CRUISE
2020-04-19 19:15:4149472197723DESCEND
2020-04-19 19:16:414947327823CRUISE
2020-04-19 19:17:411110187923TAXI TO THE GATE
2020-04-19 19:18:4168188023TAXI TO THE GATE
2020-04-19 19:19:411214188123TAXI TO THE GATE
2020-04-19 19:20:411113188223TAXI TO THE GATE
2020-04-19 19:21:4179188323TAXI TO THE GATE
2020-04-19 19:22:4100188423TAXI TO THE GATE